Time;durP1;ratioP1;P1;durP2;ratioP2;P2;SDS_P1;SDS_P2;PMS_P1;PMS_P2;Temp;Humidity;BMP_temperature;BMP_pressure;BME280_temperature;BME280_humidity;BME280_pressure;Samples;Min_cycle;Max_cycle;Signal;HPM_P1;HPM_P2
2022/08/22 00:02:14;;;;;;;18.70;9.85;;;;;;;19.76;90.33;99547.77;1522484;85;21329;-81
2022/08/22 00:04:52;;;;;;;12.68;9.23;;;;;;;19.75;89.79;99549.64;1526522;85;21424;-81
2022/08/22 00:07:35;;;;;;;9.95;8.80;;;;;;;19.71;90.04;99553.84;1506165;85;21424;-81
2022/08/22 00:10:19;;;;;;;12.63;8.73;;;;;;;19.75;89.86;99547.48;1493694;85;21382;-80
2022/08/22 00:13:06;;;;;;;12.73;9.28;;;;;;;19.76;90.00;99548.59;1512655;85;21307;-80
2022/08/22 00:15:38;;;;;;;27.93;9.33;;;;;;;19.73;90.24;99542.34;1507767;85;21551;-81
2022/08/22 00:18:19;;;;;;;16.23;9.50;;;;;;;19.73;90.05;99540.99;1519337;85;22402;-80
2022/08/22 00:20:58;;;;;;;;;;;;;;;19.74;90.52;99543.99;1523079;85;21329;-80
2022/08/22 00:23:35;;;;;;;14.95;10.08;;;;;;;19.75;90.65;99544.80;1516711;85;20359;-81
2022/08/22 00:26:23;;;;;;;16.90;10.03;;;;;;;19.74;90.06;99548.55;1529439;85;21477;-79
2022/08/22 00:29:06;;;;;;;12.35;9.28;;;;;;;19.73;90.33;99542.34;1492557;85;21432;-78
2022/08/22 00:31:43;;;;;;;18.20;9.15;;;;;;;19.72;90.21;99544.73;1515907;85;21454;-80
2022/08/22 00:34:24;;;;;;;15.10;9.68;;;;;;;19.70;90.23;99541.45;1518801;85;21461;-79
2022/08/22 00:37:08;;;;;;;21.27;9.65;;;;;;;19.71;90.58;99544.45;1513082;85;21958;-81
2022/08/22 00:39:54;;;;;;;22.50;10.98;;;;;;;19.71;90.40;99545.80;1512937;85;21536;-79
2022/08/22 00:42:39;;;;;;;17.87;10.53;;;;;;;19.74;90.32;99550.70;1530106;84;21337;-80
2022/08/22 00:45:45;;;;;;;13.03;8.88;;;;;;;19.76;90.32;99548.59;1512399;85;21417;-80
2022/08/22 00:49:04;;;;;;;27.45;12.00;;;;;;;19.77;90.43;99558.30;1526852;85;21425;-78
2022/08/22 00:51:54;;;;;;;14.10;9.08;;;;;;;19.78;90.25;99551.87;1526225;85;21617;-79
2022/08/22 00:54:54;;;;;;;21.05;10.88;;;;;;;19.82;89.96;99543.67;1502873;85;21512;-77
2022/08/22 00:57:58;;;;;;;16.48;9.10;;;;;;;19.86;89.77;99547.23;1512832;85;21365;-79
2022/08/22 01:00:30;;;;;;;16.17;10.15;;;;;;;19.86;89.56;99545.89;1527475;85;21380;-79
2022/08/22 01:03:14;;;;;;;17.80;10.85;;;;;;;19.87;89.22;99541.63;1532329;85;21291;-79
2022/08/22 01:06:23;;;;;;;14.05;9.65;;;;;;;19.88;89.18;99542.44;1518139;85;21307;-79
2022/08/22 01:09:10;;;;;;;15.13;9.45;;;;;;;19.88;89.32;99543.78;1517569;85;21514;-79
2022/08/22 01:12:31;;;;;;;12.80;8.70;;;;;;;19.87;89.10;99542.16;1508649;85;21402;-78
2022/08/22 01:15:04;;;;;;;18.20;9.30;;;;;;;19.88;89.20;99539.75;1502900;85;21458;-79
2022/08/22 01:18:08;;;;;;;15.83;9.93;;;;;;;19.87;89.22;99542.96;1532332;85;21365;-80
2022/08/22 01:21:18;;;;;;;14.10;9.53;;;;;;;19.81;91.03;99544.70;1512142;85;21373;-77
2022/08/22 01:24:10;;;;;;;18.60;10.30;;;;;;;19.81;90.05;99547.38;1508681;85;21358;-79
2022/08/22 01:27:08;;;;;;;12.15;10.05;;;;;;;19.81;89.92;99551.94;1505965;85;21373;-78
2022/08/22 01:30:06;;;;;;;14.53;8.88;;;;;;;19.78;91.16;99554.55;1518998;85;21581;-79
2022/08/22 01:33:19;;;;;;;17.80;10.08;;;;;;;19.79;90.54;99555.37;1525290;85;21439;-79
2022/08/22 01:36:00;;;;;;;14.40;8.10;;;;;;;19.81;90.27;99563.49;1508183;85;21572;-79
2022/08/22 01:38:47;;;;;;;13.32;9.13;;;;;;;19.81;91.02;99560.81;1526894;85;21484;-79
2022/08/22 01:41:58;;;;;;;21.85;9.93;;;;;;;19.79;91.31;99562.92;1509919;85;21337;-77
2022/08/22 01:44:37;;;;;;;;;;;;;;;19.77;91.14;99555.61;1489944;85;21402;-79
2022/08/22 01:47:18;;;;;;;14.07;9.08;;;;;;;19.73;91.91;99557.63;1510526;85;20306;-79
2022/08/22 01:49:49;;;;;;;14.38;9.80;;;;;;;19.73;90.91;99556.28;1513985;85;22224;-79
2022/08/22 01:52:45;;;;;;;12.10;9.98;;;;;;;19.71;91.08;99556.53;1523835;85;22408;-77
2022/08/22 01:55:40;;;;;;;14.55;9.00;;;;;;;19.67;92.76;99562.05;1524460;85;21491;-79
2022/08/22 01:58:23;;;;;;;14.70;9.10;;;;;;;19.61;93.28;99563.73;1501679;85;21410;-79
2022/08/22 02:01:13;;;;;;;18.12;9.53;;;;;;;19.59;92.48;99565.86;1530494;84;21379;-77
2022/08/22 02:04:09;;;;;;;13.98;8.83;;;;;;;19.61;92.06;99564.27;1503296;85;21948;-80
2022/08/22 02:06:53;;;;;;;18.50;8.98;;;;;;;19.53;93.07;99565.39;1535285;83;21351;-79
2022/08/22 02:09:31;;;;;;;15.50;10.93;;;;;;;19.45;92.54;99566.23;1528439;83;21631;-78
2022/08/22 02:12:11;;;;;;;18.60;9.78;;;;;;;19.42;92.12;99563.51;1524157;85;21875;-79
2022/08/22 02:14:46;;;;;;;12.07;9.13;;;;;;;19.36;92.23;99558.52;1509020;85;22005;-79
2022/08/22 02:17:23;;;;;;;17.02;10.40;;;;;;;19.31;92.56;99562.92;1501156;85;21491;-76
2022/08/22 02:20:17;;;;;;;20.00;9.10;;;;;;;19.26;92.59;99558.23;1470277;86;21442;-80
2022/08/22 02:23:23;;;;;;;12.93;9.70;;;;;;;19.25;92.48;99554.41;1534497;83;22446;-80
2022/08/22 02:26:11;;;;;;;18.52;10.68;;;;;;;19.23;92.88;99564.05;1520619;85;23290;-81
2022/08/22 02:28:51;;;;;;;21.17;9.40;;;;;;;19.24;92.53;99560.30;1526597;83;21598;-80
2022/08/22 02:31:30;;;;;;;17.77;8.93;;;;;;;19.23;92.78;99561.89;1524340;85;21890;-79
2022/08/22 02:34:01;;;;;;;15.53;10.10;;;;;;;19.22;92.74;99561.08;1527247;83;22560;-80
2022/08/22 02:36:35;;;;;;;13.05;9.30;;;;;;;19.21;92.26;99556.73;1516272;86;21931;-79
2022/08/22 02:39:22;;;;;;;13.85;10.10;;;;;;;19.18;92.57;99555.84;1516982;84;21588;-79
2022/08/22 02:42:09;;;;;;;13.22;9.95;;;;;;;19.10;94.71;99556.98;1468680;87;22313;-80
2022/08/22 02:44:40;;;;;;;11.63;9.50;;;;;;;19.03;95.27;99556.23;1511735;84;21432;-79
2022/08/22 02:47:32;;;;;;;13.88;8.95;;;;;;;18.99;94.78;99560.41;1502802;85;21332;-80
2022/08/22 02:50:36;;;;;;;13.83;9.68;;;;;;;18.98;94.27;99557.94;1534366;85;21990;-79
2022/08/22 02:53:17;;;;;;;11.80;9.50;;;;;;;18.98;93.89;99556.60;1524323;83;21460;-78
2022/08/22 02:56:00;;;;;;;15.60;10.00;;;;;;;18.89;95.83;99558.23;1503714;83;21431;-80
2022/08/22 02:58:43;;;;;;;15.10;9.63;;;;;;;18.84;95.60;99561.28;1519077;85;21616;-79
2022/08/22 03:01:30;;;;;;;15.63;8.10;;;;;;;18.81;95.68;99559.86;1528964;85;21484;-80
2022/08/22 03:04:33;;;;;;;13.93;9.25;;;;;;;18.79;95.25;99557.95;1515009;85;21417;-79
2022/08/22 03:07:17;;;;;;;16.48;9.65;;;;;;;18.78;94.80;99562.17;1480319;88;21548;-78
2022/08/22 03:09:49;;;;;;;15.73;9.83;;;;;;;18.78;94.89;99564.33;1480659;88;22395;-78
2022/08/22 03:12:41;;;;;;;17.52;9.25;;;;;;;18.78;94.65;99567.01;1476367;88;21603;-78
2022/08/22 03:15:21;;;;;;;20.68;10.75;;;;;;;18.79;94.65;99567.33;1476363;88;21514;-79
2022/08/22 03:18:17;;;;;;;16.17;10.48;;;;;;;18.81;94.42;99566.56;1477257;88;22000;-80
2022/08/22 03:21:12;;;;;;;12.77;10.20;;;;;;;18.85;94.29;99570.45;1466849;88;21537;-79
2022/08/22 03:23:50;;;;;;;18.50;11.22;;;;;;;18.83;93.88;99573.87;1461967;88;21487;-79
2022/08/22 03:26:22;;;;;;;17.80;12.70;;;;;;;18.81;93.85;99579.97;1484778;88;21439;-78
2022/08/22 03:28:58;;;;;;;12.33;10.45;;;;;;;18.80;93.87;99581.55;1461814;88;23478;-81
2022/08/22 03:31:28;;;;;;;18.12;11.18;;;;;;;18.78;94.17;99577.73;1465883;88;21462;-78
2022/08/22 03:34:17;;;;;;;19.05;10.70;;;;;;;18.76;94.23;99577.16;1467453;88;21548;-79
2022/08/22 03:37:23;;;;;;;14.03;9.60;;;;;;;18.74;94.16;99575.21;1480072;88;21396;-81
2022/08/22 03:40:07;;;;;;;14.28;9.70;;;;;;;18.73;94.34;99581.59;1515686;85;21395;-78
2022/08/22 03:43:08;;;;;;;18.33;9.60;;;;;;;18.72;95.00;99585.30;1511584;85;21410;-79
2022/08/22 03:45:43;;;;;;;;;;;;;;;18.69;95.24;99581.72;1519973;84;21562;-80
2022/08/22 03:48:45;;;;;;;15.53;9.50;;;;;;;18.63;97.32;99586.09;1510656;83;20384;-81
2022/08/22 03:51:39;;;;;;;10.33;8.80;;;;;;;18.63;96.72;99587.44;1514008;85;21603;-77
2022/08/22 03:54:29;;;;;;;13.77;10.47;;;;;;;18.68;96.01;99590.81;1506655;86;21564;-81
2022/08/22 03:57:23;;;;;;;15.95;11.45;;;;;;;18.70;95.74;99590.05;1499180;86;21424;-79
2022/08/22 04:00:14;;;;;;;21.03;9.23;;;;;;;18.74;95.52;99591.30;1520877;85;21564;-80
2022/08/22 04:02:59;;;;;;;;;;;;;;;18.76;95.38;99591.90;1525336;85;21499;-80
2022/08/22 04:05:53;;;;;;;19.67;12.90;;;;;;;18.76;95.93;99599.94;1529729;85;20718;-81
2022/08/22 04:08:40;;;;;;;18.47;11.93;;;;;;;18.78;94.97;99600.52;1503832;86;21330;-80
2022/08/22 04:11:38;;;;;;;16.00;11.90;;;;;;;18.80;94.97;99606.48;1505710;86;21418;-81
2022/08/22 04:14:31;;;;;;;18.45;11.53;;;;;;;18.84;95.29;99610.34;1507388;86;21484;-78
2022/08/22 04:17:12;;;;;;;16.00;11.20;;;;;;;18.91;95.39;99610.30;1508344;86;21345;-80
2022/08/22 04:20:02;;;;;;;16.02;12.47;;;;;;;18.93;95.96;99611.73;1520285;83;22474;-78
2022/08/22 04:22:55;;;;;;;22.02;12.75;;;;;;;19.01;95.79;99621.84;1526603;84;21539;-81
2022/08/22 04:25:45;;;;;;;20.27;11.33;;;;;;;19.07;95.77;99619.61;1538085;83;21278;-80
2022/08/22 04:28:23;;;;;;;20.72;12.13;;;;;;;19.12;96.07;99614.41;1507716;85;22357;-79
2022/08/22 04:31:13;;;;;;;19.27;13.43;;;;;;;19.14;95.51;99610.98;1507714;85;21255;-79
2022/08/22 04:34:09;;;;;;;23.62;14.33;;;;;;;19.20;95.52;99616.80;1531209;83;21432;-79
2022/08/22 04:36:44;;;;;;;17.55;12.58;;;;;;;19.26;95.34;99617.23;1514976;83;21469;-80
2022/08/22 04:39:19;;;;;;;23.87;13.53;;;;;;;19.33;95.35;99614.47;1531841;83;21255;-77
2022/08/22 04:42:04;;;;;;;12.70;11.00;;;;;;;19.36;94.92;99613.52;1488288;85;21381;-78
2022/08/22 04:44:44;;;;;;;19.10;11.15;;;;;;;19.37;94.42;99612.99;1523583;85;21410;-79
2022/08/22 04:47:37;;;;;;;15.58;10.00;;;;;;;19.34;93.74;99615.60;1516752;85;21462;-77
2022/08/22 04:50:09;;;;;;;16.17;10.53;;;;;;;19.35;93.80;99618.57;1516937;85;21381;-80
2022/08/22 04:52:47;;;;;;;18.75;11.93;;;;;;;19.26;94.06;99625.28;1517842;83;21609;-80
2022/08/22 04:55:27;;;;;;;14.40;11.08;;;;;;;19.27;93.79;99626.10;1504045;85;22320;-78
2022/08/22 04:58:15;;;;;;;19.87;11.38;;;;;;;19.28;94.34;99623.21;1514843;85;22627;-80
2022/08/22 05:01:09;;;;;;;16.62;11.43;;;;;;;19.32;94.73;99625.73;1528160;83;22459;-78
2022/08/22 05:03:41;;;;;;;15.88;10.98;;;;;;;19.35;95.19;99631.98;1514802;83;21358;-81
2022/08/22 05:06:09;;;;;;;14.78;10.60;;;;;;;19.38;95.19;99637.43;1510821;83;22350;-80
2022/08/22 05:08:39;;;;;;;20.70;11.65;;;;;;;19.44;94.65;99629.00;1511686;83;21452;-80
2022/08/22 05:11:08;;;;;;;22.45;11.43;;;;;;;19.51;95.09;99634.59;1517225;85;21513;-79
2022/08/22 05:13:46;;;;;;;19.23;14.13;;;;;;;19.59;94.86;99645.53;1511439;85;21358;-80
2022/08/22 05:16:17;;;;;;;17.90;14.35;;;;;;;19.68;94.74;99652.28;1524597;85;21597;-81
2022/08/22 05:18:57;;;;;;;18.95;13.40;;;;;;;19.72;94.47;99652.12;1500124;85;21536;-79
2022/08/22 05:21:29;;;;;;;18.45;13.53;;;;;;;19.80;94.60;99653.15;1496972;85;21337;-79
2022/08/22 05:24:12;;;;;;;17.30;12.00;;;;;;;19.81;95.73;99657.46;1538507;83;21403;-79
2022/08/22 05:26:47;;;;;;;16.32;12.68;;;;;;;19.88;94.49;99656.55;1550372;83;21314;-80
2022/08/22 05:29:18;;;;;;;18.80;13.80;;;;;;;19.94;94.63;99655.64;1490269;86;21322;-81
2022/08/22 05:32:05;;;;;;;26.12;12.65;;;;;;;20.04;94.34;99659.95;1528204;84;21388;-80
2022/08/22 05:34:38;;;;;;;17.12;12.93;;;;;;;20.07;94.66;99654.12;1534915;83;21396;-82
2022/08/22 05:37:25;;;;;;;21.23;14.13;;;;;;;20.19;94.43;99661.69;1543950;83;21350;-81
2022/08/22 05:39:59;;;;;;;28.38;15.03;;;;;;;20.29;94.32;99666.52;1483098;86;22371;-77
2022/08/22 05:42:30;;;;;;;24.87;16.65;;;;;;;20.38;93.70;99662.98;1504553;84;21389;-80
2022/08/22 05:44:56;;;;;;;26.10;15.30;;;;;;;20.47;93.35;99667.78;1489822;87;21404;-81
2022/08/22 05:47:43;;;;;;;21.55;15.10;;;;;;;20.54;92.75;99675.77;1501399;84;22089;-81
2022/08/22 05:50:26;;;;;;;27.13;14.98;;;;;;;20.56;92.59;99673.67;1488505;87;21484;-79
2022/08/22 05:53:14;;;;;;;20.32;16.55;;;;;;;20.61;91.97;99675.67;1497334;84;21565;-81
2022/08/22 05:56:08;;;;;;;22.98;15.38;;;;;;;20.64;91.85;99681.41;1506822;85;21351;-86
2022/08/22 05:58:45;;;;;;;20.62;15.30;;;;;;;20.75;91.85;99681.66;1531961;85;22378;-85
2022/08/22 06:01:55;;;;;;;27.32;15.93;;;;;;;20.76;91.31;99678.72;1536172;83;22245;-85
2022/08/22 06:04:39;;;;;;;32.55;18.52;;;;;;;20.70;91.02;99679.13;1523347;83;21460;-85
2022/08/22 06:07:17;;;;;;;22.98;16.37;;;;;;;20.75;90.72;99677.62;1518017;83;21493;-85
2022/08/22 06:10:03;;;;;;;22.07;16.00;;;;;;;20.69;91.40;99686.09;1527428;83;21439;-84
2022/08/22 06:12:38;;;;;;;29.05;16.95;;;;;;;20.72;90.87;99682.41;1533521;83;21389;-84
2022/08/22 06:15:25;;;;;;;24.40;17.20;;;;;;;20.79;91.45;99684.17;1530512;85;22274;-86
2022/08/22 06:17:58;;;;;;;22.35;17.95;;;;;;;20.94;91.28;99684.52;1521850;85;21366;-86
2022/08/22 06:20:31;;;;;;;27.25;16.97;;;;;;;21.06;90.74;99685.36;1524028;84;21381;-86
2022/08/22 06:23:01;;;;;;;27.77;19.10;;;;;;;21.18;90.23;99691.55;1500758;85;21343;-85
2022/08/22 06:25:34;;;;;;;28.45;20.17;;;;;;;21.11;89.78;99688.67;1521146;83;21337;-82
2022/08/22 06:28:05;;;;;;;28.45;18.73;;;;;;;21.19;89.60;99689.13;1609263;83;21152;-87
2022/08/22 06:30:34;;;;;;;27.27;18.62;;;;;;;21.28;89.12;99686.09;1490354;85;21336;-86
2022/08/22 06:33:11;;;;;;;23.80;16.57;;;;;;;21.34;88.91;99686.48;1543414;83;21484;-87
2022/08/22 06:38:32;;;;;;;24.00;17.67;;;;;;;21.45;88.55;99696.45;1489915;85;21439;-79
2022/08/22 06:41:01;;;;;;;27.22;18.42;;;;;;;21.60;88.07;99706.72;1521657;85;21291;-80
2022/08/22 06:43:33;;;;;;;27.48;18.45;;;;;;;21.72;87.78;99705.34;1528930;83;21358;-79
2022/08/22 06:46:00;;;;;;;25.37;20.08;;;;;;;21.86;87.70;99704.02;1488910;86;22424;-79
2022/08/22 06:48:27;;;;;;;28.12;19.30;;;;;;;21.91;86.34;99708.16;1454444;85;21329;-78
2022/08/22 06:50:57;;;;;;;29.37;19.70;;;;;;;21.95;85.99;99703.95;1527534;85;21344;-80
2022/08/22 06:53:37;;;;;;;32.65;19.48;;;;;;;21.98;85.75;99705.32;1532119;83;22601;-77
2022/08/22 06:56:06;;;;;;;;;;;;;;;22.01;85.60;99705.69;1500812;86;21404;-79
2022/08/22 06:58:43;;;;;;;32.58;19.02;;;;;;;22.05;84.99;99703.31;1498025;86;20273;-78
2022/08/22 07:01:14;;;;;;;30.17;19.12;;;;;;;22.12;85.15;99700.47;1500493;86;21581;-79
2022/08/22 07:03:55;;;;;;;29.72;20.30;;;;;;;22.09;83.60;99695.84;1437684;85;21485;-78
2022/08/22 07:06:38;;;;;;;27.98;18.60;;;;;;;22.01;83.61;99690.02;1479933;86;22000;-78
2022/08/22 07:09:06;;;;;;;28.45;19.60;;;;;;;22.05;83.86;99696.59;1500693;85;21367;-79
2022/08/22 07:11:37;;;;;;;23.47;17.07;;;;;;;22.13;84.32;99700.25;1508650;84;21381;-77
2022/08/22 07:14:10;;;;;;;27.30;19.50;;;;;;;22.15;83.82;99708.07;1547960;86;21839;-76
2022/08/22 07:16:48;;;;;;;27.98;17.12;;;;;;;22.22;83.87;99712.83;1589796;86;22564;-78
2022/08/22 07:19:32;;;;;;;24.18;18.62;;;;;;;22.30;83.78;99715.95;1590728;84;21937;-80
2022/08/22 07:22:02;;;;;;;27.40;19.25;;;;;;;22.38;83.30;99724.16;1518712;88;21365;-79
2022/08/22 07:24:31;;;;;;;26.68;20.65;;;;;;;22.39;82.83;99720.42;1538518;86;21389;-78
2022/08/22 07:27:12;;;;;;;34.65;21.07;;;;;;;22.41;83.25;99712.92;1441183;84;21263;-78
2022/08/22 07:30:05;;;;;;;27.10;18.33;;;;;;;22.34;83.26;99710.89;1533235;83;21299;-79
2022/08/22 07:32:58;;;;;;;22.80;16.30;;;;;;;22.24;83.91;99695.36;1535112;83;21500;-77
2022/08/22 07:35:33;;;;;;;27.95;17.02;;;;;;;22.14;84.21;99683.00;1515050;85;21468;-75
2022/08/22 07:38:31;;;;;;;27.02;16.77;;;;;;;22.13;84.52;99685.95;1527181;85;21380;-77
2022/08/22 07:41:19;;;;;;;25.52;16.05;;;;;;;22.10;84.87;99676.48;1520419;85;21387;-77
2022/08/22 07:43:56;;;;;;;27.07;16.85;;;;;;;22.14;84.61;99688.93;1512087;85;21410;-77
2022/08/22 07:46:42;;;;;;;23.30;15.15;;;;;;;22.19;84.30;99698.50;1519086;85;21613;-78
2022/08/22 07:49:22;;;;;;;20.15;17.27;;;;;;;22.27;84.23;99700.80;1514462;83;21579;-79
2022/08/22 07:52:01;;;;;;;26.73;18.27;;;;;;;22.42;84.10;99698.37;1524451;83;21509;-78
2022/08/22 07:54:42;;;;;;;24.67;16.73;;;;;;;22.59;84.16;99700.27;1519316;85;21408;-78
2022/08/22 07:57:27;;;;;;;25.68;18.12;;;;;;;22.77;83.11;99704.07;1502094;85;21602;-79
2022/08/22 07:59:57;;;;;;;21.73;15.43;;;;;;;23.00;81.47;99698.25;1519714;83;21387;-79
2022/08/22 08:02:24;;;;;;;22.15;16.80;;;;;;;23.32;80.97;99704.65;1514443;85;21580;-79
2022/08/22 08:04:55;;;;;;;19.98;17.73;;;;;;;23.55;78.94;99702.25;1433493;86;21233;-78
2022/08/22 08:07:25;;;;;;;16.45;14.55;;;;;;;23.89;78.26;99694.59;1429801;86;22011;-79
2022/08/22 08:09:58;;;;;;;22.40;15.80;;;;;;;24.24;78.13;99690.09;1603151;85;21336;-79
2022/08/22 08:12:35;;;;;;;25.75;16.10;;;;;;;24.53;76.94;99690.11;1531995;85;21594;-78
2022/08/22 08:15:06;;;;;;;19.27;14.93;;;;;;;24.72;74.97;99691.91;1604856;85;21182;-79
2022/08/22 08:17:34;;;;;;;26.48;16.17;;;;;;;24.86;74.33;99699.56;1537863;85;21507;-79
2022/08/22 08:20:10;;;;;;;24.43;15.55;;;;;;;25.15;73.19;99689.27;1520675;85;21557;-80
2022/08/22 08:22:38;;;;;;;18.37;14.38;;;;;;;25.27;70.80;99689.06;1424369;86;22128;-80
2022/08/22 08:25:07;;;;;;;20.12;14.90;;;;;;;25.30;70.36;99684.47;1432867;86;21233;-79
2022/08/22 08:30:35;;;;;;;22.73;11.88;;;;;;;25.73;70.93;99684.66;1614058;85;22075;-80
2022/08/22 08:33:04;;;;;;;17.05;12.68;;;;;;;25.99;70.12;99681.52;1509019;85;21356;-77
2022/08/22 08:35:38;;;;;;;19.82;12.82;;;;;;;26.21;68.33;99680.45;1459606;85;21366;-77
2022/08/22 08:38:18;;;;;;;24.95;13.38;;;;;;;26.35;67.13;99681.56;1510387;83;22371;-76
2022/08/22 08:41:01;;;;;;;19.50;11.15;;;;;;;26.27;66.36;99681.57;1521593;84;21423;-77
2022/08/22 08:43:54;;;;;;;17.92;10.93;;;;;;;26.20;64.58;99682.91;1522257;85;21398;-77
2022/08/22 08:46:46;;;;;;;22.00;11.40;;;;;;;26.34;66.35;99676.69;1529741;83;22350;-77
2022/08/22 08:49:20;;;;;;;20.95;10.82;;;;;;;26.49;64.39;99679.13;1512473;84;22187;-77
2022/08/22 08:52:11;;;;;;;21.95;11.97;;;;;;;26.58;65.24;99686.22;1508886;85;21416;-77
2022/08/22 08:55:20;;;;;;;18.62;11.25;;;;;;;26.68;64.94;99678.91;1505170;85;21476;-77
2022/08/22 08:57:58;;;;;;;19.23;13.32;;;;;;;26.91;64.46;99682.95;1517318;83;21424;-78
2022/08/22 09:00:42;;;;;;;19.77;11.35;;;;;;;26.89;63.59;99686.47;1506307;83;21403;-78
2022/08/22 09:03:28;;;;;;;21.12;12.73;;;;;;;26.97;63.42;99688.64;1514713;83;21365;-77
2022/08/22 09:06:21;;;;;;;18.80;12.30;;;;;;;27.22;62.91;99684.29;1522518;83;22437;-75
2022/08/22 09:09:34;;;;;;;22.15;13.18;;;;;;;27.45;62.76;99683.67;1525005;83;21365;-76
2022/08/22 09:12:15;;;;;;;18.85;12.33;;;;;;;27.62;62.28;99679.26;1517359;85;21550;-77
2022/08/22 09:14:50;;;;;;;21.23;11.85;;;;;;;27.55;61.23;99677.92;1516483;85;21380;-78
2022/08/22 09:17:52;;;;;;;17.82;11.68;;;;;;;27.40;61.06;99671.45;1604578;85;22209;-78
2022/08/22 09:20:30;;;;;;;23.67;11.55;;;;;;;27.45;61.29;99676.88;1586944;85;21299;-77
2022/08/22 09:23:31;;;;;;;15.05;9.90;;;;;;;27.39;61.55;99676.62;1532620;83;21409;-77
2022/08/22 09:26:24;;;;;;;16.07;10.00;;;;;;;27.42;57.96;99672.00;1511771;83;21463;-78
2022/08/22 09:29:38;;;;;;;18.17;10.70;;;;;;;27.70;59.88;99667.52;1515722;83;22526;-78
2022/08/22 09:32:45;;;;;;;16.97;9.50;;;;;;;27.96;58.83;99661.43;1521463;83;21551;-76
2022/08/22 09:35:51;;;;;;;17.77;9.25;;;;;;;28.10;57.38;99660.52;1517900;83;21373;-78
2022/08/22 09:38:56;;;;;;;18.80;9.43;;;;;;;28.33;58.63;99657.63;1508196;85;21358;-78
2022/08/22 09:41:43;;;;;;;20.12;9.63;;;;;;;28.46;58.15;99661.66;1525570;85;21314;-78
2022/08/22 09:44:21;;;;;;;13.68;9.35;;;;;;;28.23;56.70;99659.08;1530851;83;21321;-78
2022/08/22 09:47:11;;;;;;;16.35;8.28;;;;;;;28.43;56.50;99660.06;1525804;85;21513;-79
2022/08/22 09:50:00;;;;;;;13.85;7.80;;;;;;;28.31;55.34;99654.41;1531751;83;21387;-79
2022/08/22 09:52:50;;;;;;;;;;;;;;;28.53;56.20;99659.41;1533177;83;22275;-79
2022/08/22 09:55:51;;;;;;;16.62;6.90;;;;;;;28.58;56.03;99662.64;1516379;85;20828;-78
2022/08/22 09:58:38;;;;;;;11.80;6.72;;;;;;;28.50;55.64;99654.53;1518105;85;21423;-77
2022/08/22 10:01:12;;;;;;;14.70;7.58;;;;;;;28.45;54.46;99653.77;1521162;85;21462;-78
2022/08/22 10:04:18;;;;;;;20.00;6.97;;;;;;;28.43;55.56;99658.15;1513983;85;21344;-81
2022/08/22 10:06:56;;;;;;;16.20;5.85;;;;;;;28.57;53.72;99655.59;1523088;85;21491;-80
2022/08/22 10:09:29;;;;;;;11.60;5.37;;;;;;;28.74;54.27;99655.97;1515711;85;21300;-80
2022/08/22 10:12:01;;;;;;;11.78;6.37;;;;;;;28.96;53.38;99660.11;1520889;85;21447;-80
2022/08/22 10:14:48;;;;;;;13.68;5.92;;;;;;;29.27;53.33;99653.00;1507734;85;22207;-77
2022/08/22 10:17:29;;;;;;;10.10;5.85;;;;;;;29.55;52.46;99652.64;1511451;85;21610;-80
2022/08/22 10:20:25;;;;;;;13.90;5.80;;;;;;;29.52;51.76;99654.59;1512172;85;22142;-79
2022/08/22 10:23:09;;;;;;;12.68;5.17;;;;;;;29.40;51.32;99653.64;1539509;83;21529;-80
2022/08/22 10:29:43;;;;;;;10.35;5.03;;;;;;;29.75;51.46;99643.41;1518038;85;22615;-81
2022/08/22 10:32:39;;;;;;;13.10;4.90;;;;;;;29.71;49.64;99634.20;1489672;85;21365;-78
2022/08/22 10:35:23;;;;;;;7.20;4.53;;;;;;;29.35;48.25;99634.66;1524925;85;21343;-80
2022/08/22 10:38:04;;;;;;;8.95;5.65;;;;;;;29.38;50.71;99642.25;1514395;85;21329;-78
2022/08/22 10:41:15;;;;;;;10.78;5.03;;;;;;;29.26;50.17;99638.55;1517698;85;21896;-80
2022/08/22 10:44:05;;;;;;;10.98;4.65;;;;;;;29.03;50.17;99636.08;1512189;85;22375;-78
2022/08/22 10:46:39;;;;;;;12.58;4.28;;;;;;;29.08;50.70;99633.30;1532119;85;21478;-80
2022/08/22 10:49:28;;;;;;;8.33;5.30;;;;;;;29.14;51.23;99633.51;1524835;84;21478;-78
2022/08/22 10:52:11;;;;;;;8.38;4.75;;;;;;;29.42;51.58;99630.45;1599381;85;21256;-80
2022/08/22 10:55:05;;;;;;;8.98;4.25;;;;;;;29.54;50.27;99633.31;1611452;85;21190;-79
2022/08/22 10:58:01;;;;;;;8.88;5.42;;;;;;;29.71;49.96;99626.03;1523460;85;21351;-79
2022/08/22 11:00:55;;;;;;;9.63;4.90;;;;;;;29.77;50.05;99614.74;1490789;84;21519;-78
2022/08/22 11:03:53;;;;;;;9.80;5.08;;;;;;;29.95;49.53;99613.11;1516786;84;22421;-78
2022/08/22 11:06:30;;;;;;;13.95;5.25;;;;;;;30.23;49.47;99611.34;1524784;85;21587;-78
2022/08/22 11:09:26;;;;;;;10.23;4.17;;;;;;;30.20;48.58;99601.00;1513384;85;21624;-80
2022/08/22 11:12:01;;;;;;;5.42;3.52;;;;;;;29.96;47.81;99597.02;1510345;85;21602;-78
2022/08/22 11:14:38;;;;;;;6.00;4.85;;;;;;;29.68;49.09;99600.96;1521842;83;21491;-76
2022/08/22 11:17:27;;;;;;;11.12;4.70;;;;;;;29.53;49.46;99599.79;1519745;85;21367;-80
2022/08/22 11:20:26;;;;;;;7.60;4.55;;;;;;;29.43;49.78;99591.21;1520395;85;21306;-79
2022/08/22 11:23:20;;;;;;;8.73;4.60;;;;;;;29.40;50.00;99593.69;1506521;85;21454;-79
2022/08/22 11:25:51;;;;;;;10.75;4.45;;;;;;;29.35;49.88;99586.96;1518594;85;22378;-78
2022/08/22 11:28:45;;;;;;;5.92;4.33;;;;;;;29.20;50.12;99592.86;1517135;85;22424;-80
2022/08/22 11:31:31;;;;;;;12.50;5.08;;;;;;;29.11;49.99;99591.86;1536415;83;21453;-79
2022/08/22 11:34:23;;;;;;;7.87;4.78;;;;;;;29.24;49.75;99593.09;1476482;86;21500;-78
2022/08/22 11:36:57;;;;;;;10.63;4.65;;;;;;;29.55;49.76;99594.86;1521728;85;22340;-80
2022/08/22 11:39:33;;;;;;;8.03;4.70;;;;;;;29.57;49.18;99589.91;1494263;83;21519;-78
2022/08/22 11:42:24;;;;;;;10.00;4.50;;;;;;;29.46;48.01;99585.17;1567959;83;21307;-79
2022/08/22 11:45:02;;;;;;;8.58;3.95;;;;;;;29.64;48.86;99585.50;1458272;87;21465;-79
2022/08/22 11:47:33;;;;;;;8.40;4.37;;;;;;;29.90;48.28;99585.94;1539771;83;22348;-78
2022/08/22 11:50:33;;;;;;;8.78;4.72;;;;;;;30.10;48.24;99580.72;1532583;83;21358;-80
2022/08/22 11:53:33;;;;;;;6.78;4.28;;;;;;;30.21;48.01;99579.47;1535958;85;21314;-80
2022/08/22 11:56:11;;;;;;;6.58;4.20;;;;;;;30.35;46.55;99574.03;1620013;83;21233;-80
2022/08/22 11:58:55;;;;;;;6.00;3.80;;;;;;;30.40;46.71;99580.77;1566788;83;22532;-80
2022/08/22 12:01:38;;;;;;;8.25;4.25;;;;;;;30.41;46.51;99572.83;1503853;85;22216;-80
2022/08/22 12:04:25;;;;;;;8.98;3.80;;;;;;;30.16;46.49;99566.44;1527369;83;22160;-81
2022/08/22 12:07:02;;;;;;;9.93;4.45;;;;;;;30.23;46.51;99559.50;1527582;84;21520;-79
2022/08/22 12:09:54;;;;;;;18.87;4.37;;;;;;;30.36;45.96;99555.20;1525630;85;21380;-80
2022/08/22 12:12:36;;;;;;;12.68;4.42;;;;;;;30.37;45.61;99547.81;1515472;83;22117;-78
2022/08/22 12:15:25;;;;;;;10.43;4.05;;;;;;;30.64;46.00;99536.91;1529776;83;21380;-80
2022/08/22 12:18:06;;;;;;;7.63;3.57;;;;;;;30.98;45.53;99534.37;1517721;85;22363;-78
2022/08/22 12:21:03;;;;;;;27.50;5.00;;;;;;;31.11;45.06;99521.82;1527678;83;23012;-79
2022/08/22 12:23:41;;;;;;;14.47;4.40;;;;;;;31.17;43.73;99511.03;1527097;83;21300;-80
2022/08/22 12:26:48;;;;;;;16.37;4.35;;;;;;;31.36;43.28;99496.69;1521149;83;22078;-79
2022/08/22 12:29:47;;;;;;;41.85;4.67;;;;;;;31.38;43.16;99487.61;1526805;83;21299;-77
2022/08/22 12:32:36;;;;;;;22.02;4.22;;;;;;;31.64;42.68;99485.64;1522823;83;21925;-79
2022/08/22 12:35:22;;;;;;;13.55;4.25;;;;;;;31.77;41.80;99492.98;1521885;85;22202;-79
2022/08/22 12:38:41;;;;;;;9.25;3.95;;;;;;;31.77;42.13;99491.62;1499404;85;21329;-80
2022/08/22 12:41:25;;;;;;;8.98;3.98;;;;;;;31.35;42.36;99493.69;1519320;83;21417;-79
2022/08/22 12:44:17;;;;;;;8.98;3.58;;;;;;;31.13;43.30;99494.97;1514675;83;21338;-78
2022/08/22 12:47:30;;;;;;;7.95;4.12;;;;;;;30.74;43.56;99481.30;1524907;83;21249;-80
2022/08/22 12:50:25;;;;;;;14.30;4.20;;;;;;;30.48;44.20;99481.80;1514171;86;21329;-80
2022/08/22 12:53:14;;;;;;;8.63;3.62;;;;;;;30.16;44.41;99475.03;1504092;86;22327;-79
2022/08/22 12:56:15;;;;;;;10.83;4.60;;;;;;;29.81;44.80;99482.73;1513759;83;21515;-79